Mc Kenzie, Tennessee
Current Conditions -  °F | °C
As of 10:55 PM on Monday 20 Oct 2014 (Local Time) from KPHT Reporting Station
Broken Clouds Broken Clouds  
Wind Chill: 55°   Ceiling: 8000
Heat Index: 55°   Visibility: 10mi
Dew Point: 52°   Wind: 6mph
Humidity: 88%   Direction: 240°WSW
Pressure: 30.02"   Gusts: NA
Location:  36.1019°N, 88.5109°W
Report Text: KPHT 210355Z AUTO 24005KT 10SM FEW047 SCT055 BKN080 13/11 A3002 RMK
Loading
Personal Weather Stations






























Interactive Weather Map
Tropical Storm Tracking
New forecast layout! Learn more

10-Day Weather Forecast

Advertisements
Track Severe Weather on mobile